createdAt,value
2022-10-21T00:01:27.164Z,20.53
2022-10-21T00:03:54.307Z,20.20
2022-10-21T00:06:21.446Z,22.27
2022-10-21T00:08:48.676Z,24.97
2022-10-21T00:11:15.846Z,26.77
2022-10-21T00:13:42.979Z,24.27
2022-10-21T00:16:11.435Z,23.97
2022-10-21T00:18:38.947Z,24.37
2022-10-21T00:21:06.897Z,24.27
2022-10-21T00:23:34.124Z,22.63
2022-10-21T00:26:01.364Z,25.90
2022-10-21T00:28:28.595Z,26.40
2022-10-21T00:30:58.001Z,26.37
2022-10-21T00:33:25.743Z,27.07
2022-10-21T00:35:53.462Z,26.90
2022-10-21T00:40:52.698Z,28.07
2022-10-21T00:43:19.896Z,24.43
2022-10-21T00:45:47.185Z,23.47
2022-10-21T00:48:23.342Z,24.70
2022-10-21T00:50:58.451Z,23.93
2022-10-21T00:53:25.674Z,25.67
2022-10-21T00:55:56.672Z,22.20
2022-10-21T00:58:24.818Z,20.67
2022-10-21T01:00:52.116Z,21.07
2022-10-21T01:03:19.457Z,22.77
2022-10-21T01:05:46.728Z,24.07
2022-10-21T01:08:13.908Z,20.53
2022-10-21T01:10:41.091Z,22.37
2022-10-21T01:13:17.574Z,18.67
2022-10-21T01:15:58.532Z,19.27
2022-10-21T01:18:32.874Z,18.83
2022-10-21T01:21:08.800Z,18.47
2022-10-21T01:23:54.816Z,17.47
2022-10-21T01:26:33.987Z,17.70
2022-10-21T01:29:19.207Z,16.13
2022-10-21T01:31:47.426Z,17.53
2022-10-21T01:34:26.909Z,16.80
2022-10-21T01:37:15.138Z,16.67
2022-10-21T01:39:43.721Z,17.90
2022-10-21T01:42:13.923Z,19.77
2022-10-21T01:44:45.010Z,20.23
2022-10-21T01:47:13.212Z,18.87
2022-10-21T01:49:45.170Z,24.43
2022-10-21T01:52:12.415Z,20.37
2022-10-21T01:54:40.559Z,18.90
2022-10-21T01:57:07.796Z,18.80
2022-10-21T01:59:35.010Z,18.80
2022-10-21T02:02:03.113Z,19.90
2022-10-21T02:04:30.318Z,20.73
2022-10-21T02:06:57.456Z,19.83
2022-10-21T02:09:24.861Z,21.50
2022-10-21T02:11:52.833Z,21.73
2022-10-21T02:14:31.175Z,27.80
2022-10-21T02:16:58.939Z,20.73
2022-10-21T02:19:26.334Z,20.50
2022-10-21T02:21:53.686Z,23.27
2022-10-21T02:24:33.327Z,17.03
2022-10-21T02:27:00.453Z,17.13
2022-10-21T02:29:28.874Z,18.53
2022-10-21T02:32:05.385Z,19.60
2022-10-21T02:34:38.552Z,19.90
2022-10-21T02:37:27.120Z,25.67
2022-10-21T02:39:59.059Z,20.33
2022-10-21T02:42:27.954Z,19.97
2022-10-21T02:44:55.096Z,19.83
2022-10-21T02:47:22.227Z,20.10
2022-10-21T02:49:49.405Z,17.80
2022-10-21T02:52:16.545Z,17.47
2022-10-21T02:54:43.695Z,16.77
2022-10-21T02:57:10.886Z,19.70
2022-10-21T02:59:38.039Z,18.07
2022-10-21T03:02:05.237Z,16.07
2022-10-21T03:04:32.395Z,17.37
2022-10-21T03:06:59.525Z,19.57
2022-10-21T03:09:26.658Z,17.07
2022-10-21T03:11:53.847Z,19.93
2022-10-21T03:14:20.993Z,19.40
2022-10-21T03:16:48.161Z,18.60
2022-10-21T03:19:15.356Z,21.50
2022-10-21T03:21:42.517Z,25.80
2022-10-21T03:24:15.385Z,30.17
2022-10-21T03:26:54.874Z,26.03
2022-10-21T03:29:22.245Z,28.43
2022-10-21T03:31:49.491Z,27.27
2022-10-21T03:34:16.739Z,23.90
2022-10-21T03:36:43.874Z,23.37
2022-10-21T03:39:11.502Z,23.30
2022-10-21T03:41:38.735Z,20.97
2022-10-21T03:44:05.867Z,22.00
2022-10-21T03:46:33.033Z,21.40
2022-10-21T03:49:04.428Z,21.23
2022-10-21T03:51:32.737Z,22.43
2022-10-21T03:53:59.874Z,23.17
2022-10-21T03:56:27.182Z,23.60
2022-10-21T03:58:58.525Z,22.20
2022-10-21T04:01:26.236Z,20.30
2022-10-21T04:03:53.559Z,18.40
2022-10-21T04:06:20.744Z,23.60
2022-10-21T04:08:47.980Z,24.53
2022-10-21T04:11:15.218Z,26.03
2022-10-21T04:13:42.401Z,25.03
2022-10-21T04:16:09.742Z,25.53
2022-10-21T04:18:36.907Z,25.00
2022-10-21T04:21:04.353Z,25.23
2022-10-21T04:23:31.505Z,29.60
2022-10-21T04:25:58.687Z,28.53
2022-10-21T04:28:25.824Z,27.03
2022-10-21T04:30:53.080Z,28.20
2022-10-21T04:33:20.253Z,26.77
2022-10-21T04:35:47.390Z,27.63
2022-10-21T04:38:14.558Z,25.70
2022-10-21T04:40:41.761Z,24.30
2022-10-21T04:43:08.914Z,25.10
2022-10-21T04:45:38.819Z,25.37
2022-10-21T04:48:06.423Z,29.73
2022-10-21T04:50:35.220Z,34.63
2022-10-21T04:53:02.354Z,32.13
2022-10-21T04:55:29.527Z,30.57
2022-10-21T04:57:56.672Z,31.87
2022-10-21T05:00:23.824Z,28.33
2022-10-21T05:02:50.992Z,29.47
2022-10-21T05:05:18.146Z,30.07
2022-10-21T05:07:45.301Z,30.53
2022-10-21T05:10:12.469Z,34.83
2022-10-21T05:12:39.612Z,32.13
2022-10-21T05:15:06.978Z,27.67
2022-10-21T05:17:36.718Z,29.13
2022-10-21T05:20:04.977Z,26.00
2022-10-21T05:22:32.121Z,23.33
2022-10-21T05:24:59.302Z,26.73
2022-10-21T05:27:26.444Z,28.93
2022-10-21T05:29:53.587Z,34.27
2022-10-21T05:32:20.769Z,37.97
2022-10-21T05:34:47.898Z,43.50
2022-10-21T05:37:15.084Z,46.73
2022-10-21T05:39:42.395Z,51.70
2022-10-21T05:42:09.640Z,50.57
2022-10-21T05:44:36.800Z,52.40
2022-10-21T05:47:04.549Z,53.80
2022-10-21T05:49:31.721Z,54.93
2022-10-21T05:51:59.049Z,62.80
2022-10-21T05:54:26.274Z,58.17
2022-10-21T05:56:55.891Z,57.40
2022-10-21T05:59:23.199Z,54.63
2022-10-21T06:01:50.429Z,56.13
2022-10-21T06:04:17.574Z,55.23
2022-10-21T06:06:44.754Z,50.77
2022-10-21T06:09:12.014Z,46.50
2022-10-21T06:11:39.220Z,47.30
2022-10-21T06:14:06.380Z,49.33
2022-10-21T06:16:35.422Z,52.77
2022-10-21T06:19:03.367Z,51.93
2022-10-21T06:21:30.532Z,53.50
2022-10-21T06:23:58.131Z,50.93
2022-10-21T06:26:25.313Z,50.30
2022-10-21T06:28:52.483Z,49.93
2022-10-21T06:31:21.657Z,48.00
2022-10-21T06:33:48.837Z,46.60
2022-10-21T06:36:16.128Z,48.53
2022-10-21T06:38:43.589Z,47.83
2022-10-21T06:41:13.259Z,49.40
2022-10-21T06:43:41.987Z,52.03
2022-10-21T06:46:10.065Z,47.70
2022-10-21T06:48:37.212Z,45.20
2022-10-21T06:51:05.502Z,46.83
2022-10-21T06:53:35.189Z,42.13
2022-10-21T06:56:09.145Z,40.97
2022-10-21T06:58:36.807Z,39.10
2022-10-21T07:01:21.380Z,38.03
2022-10-21T07:03:58.125Z,34.33
2022-10-21T07:06:25.379Z,35.63
2022-10-21T07:08:59.704Z,36.57
2022-10-21T07:11:27.564Z,40.43
2022-10-21T07:13:54.726Z,45.17
2022-10-21T07:16:25.879Z,49.23
2022-10-21T07:18:53.530Z,49.97
2022-10-21T07:21:21.391Z,57.33
2022-10-21T07:23:51.173Z,47.93
2022-10-21T07:26:18.970Z,51.00
2022-10-21T07:28:47.735Z,53.17
2022-10-21T07:31:15.447Z,57.83
2022-10-21T07:33:42.674Z,57.83
2022-10-21T07:39:48.935Z,48.03
2022-10-21T07:42:22.859Z,45.43
2022-10-21T07:44:59.523Z,37.63
2022-10-21T07:59:31.247Z,17.07
